createdAt,value
2022-08-31T00:00:43.423Z,91.07
2022-08-31T00:03:30.181Z,91.32
2022-08-31T00:06:00.438Z,91.12
2022-08-31T00:08:30.427Z,91.25
2022-08-31T00:10:59.921Z,90.73
2022-08-31T00:13:31.099Z,90.95
2022-08-31T00:15:59.446Z,89.84
2022-08-31T00:18:27.934Z,90.33
2022-08-31T00:20:56.355Z,90.28
2022-08-31T00:23:25.931Z,91.03
2022-08-31T00:25:54.467Z,91.03
2022-08-31T00:28:22.949Z,90.89
2022-08-31T00:30:51.360Z,91.28
2022-08-31T00:33:19.799Z,91.34
2022-08-31T00:35:48.324Z,90.77
2022-08-31T00:38:16.751Z,91.12
2022-08-31T00:40:46.992Z,91.12
2022-08-31T00:43:38.471Z,90.87
2022-08-31T00:46:09.400Z,90.90
2022-08-31T00:48:44.605Z,90.50
2022-08-31T00:51:18.559Z,90.71
2022-08-31T00:53:48.854Z,91.02
2022-08-31T00:56:20.125Z,91.04
2022-08-31T00:58:54.657Z,91.33
2022-08-31T01:01:24.108Z,91.34
2022-08-31T01:03:54.211Z,91.53
2022-08-31T01:06:23.436Z,91.18
2022-08-31T01:08:53.848Z,91.36
2022-08-31T01:11:22.351Z,91.10
2022-08-31T01:13:51.189Z,91.61
2022-08-31T01:16:28.282Z,90.88
2022-08-31T01:19:04.152Z,91.52
2022-08-31T01:21:42.229Z,91.06
2022-08-31T01:24:12.785Z,91.60
2022-08-31T01:26:41.820Z,91.47
2022-08-31T01:29:10.332Z,90.85
2022-08-31T01:31:45.835Z,90.82
2022-08-31T01:34:14.952Z,91.07
2022-08-31T01:36:44.703Z,90.81
2022-08-31T01:39:13.324Z,91.42
2022-08-31T01:41:44.045Z,91.37
2022-08-31T01:44:19.426Z,91.84
2022-08-31T01:46:48.752Z,92.73
2022-08-31T01:49:20.034Z,92.60
2022-08-31T01:51:49.771Z,93.37
2022-08-31T01:54:19.530Z,93.11
2022-08-31T01:56:48.540Z,93.65
2022-08-31T01:59:22.731Z,94.17
2022-08-31T02:02:20.430Z,94.81
2022-08-31T02:04:48.986Z,95.34
2022-08-31T02:07:21.785Z,94.98
2022-08-31T02:09:50.436Z,95.25
2022-08-31T02:12:19.409Z,95.80
2022-08-31T02:14:48.289Z,96.65
2022-08-31T02:17:17.182Z,96.88
2022-08-31T02:19:45.711Z,97.12
2022-08-31T02:22:15.796Z,97.49
2022-08-31T02:24:44.705Z,98.14
2022-08-31T02:27:13.879Z,98.67
2022-08-31T02:29:42.315Z,98.78
2022-08-31T02:32:19.596Z,99.11
2022-08-31T02:34:49.833Z,99.48
2022-08-31T02:37:20.936Z,99.26
2022-08-31T02:39:50.249Z,100.00
2022-08-31T02:42:21.051Z,100.00
2022-08-31T02:44:51.539Z,100.00
2022-08-31T02:47:19.862Z,100.00
2022-08-31T02:50:09.023Z,100.00
2022-08-31T02:52:39.328Z,100.00
2022-08-31T02:55:08.892Z,100.00
2022-08-31T02:57:38.393Z,100.00
2022-08-31T03:00:09.092Z,100.00
2022-08-31T03:02:37.898Z,99.96
2022-08-31T03:05:10.431Z,100.00
2022-08-31T03:07:40.009Z,100.00
2022-08-31T03:10:12.104Z,100.00
2022-08-31T03:12:40.639Z,100.00
2022-08-31T03:15:10.540Z,100.00
2022-08-31T03:17:39.498Z,100.00
2022-08-31T03:20:14.360Z,100.00
2022-08-31T03:22:45.615Z,100.00
2022-08-31T03:25:16.379Z,100.00
2022-08-31T03:27:45.859Z,100.00
2022-08-31T03:30:17.553Z,100.00
2022-08-31T03:32:54.159Z,100.00
2022-08-31T03:35:29.074Z,100.00
2022-08-31T03:37:57.647Z,100.00
2022-08-31T03:40:26.314Z,100.00
2022-08-31T03:42:58.021Z,100.00
2022-08-31T03:45:29.322Z,100.00
2022-08-31T03:47:59.791Z,100.00
2022-08-31T03:50:28.565Z,100.00
2022-08-31T03:53:05.736Z,100.00
2022-08-31T03:55:37.090Z,100.00
2022-08-31T03:58:07.057Z,100.00
2022-08-31T04:00:36.266Z,100.00
2022-08-31T04:03:12.154Z,100.00
2022-08-31T04:05:59.259Z,100.00
2022-08-31T04:08:48.099Z,100.00
2022-08-31T04:11:45.916Z,100.00
2022-08-31T04:14:33.697Z,100.00
2022-08-31T04:17:20.769Z,100.00
2022-08-31T04:19:55.470Z,100.00
2022-08-31T04:22:49.932Z,100.00
2022-08-31T04:25:32.058Z,100.00
2022-08-31T04:28:03.725Z,100.00
2022-08-31T04:30:32.870Z,100.00
2022-08-31T04:33:02.187Z,100.00
2022-08-31T04:35:31.005Z,100.00
2022-08-31T04:37:59.363Z,100.00
2022-08-31T04:40:28.688Z,100.00
2022-08-31T04:42:59.912Z,100.00
2022-08-31T04:45:29.317Z,100.00
2022-08-31T04:47:58.339Z,100.00
2022-08-31T04:50:26.710Z,100.00
2022-08-31T04:53:09.661Z,100.00
2022-08-31T04:55:42.977Z,100.00
2022-08-31T04:58:13.870Z,100.00
2022-08-31T05:00:44.302Z,100.00
2022-08-31T05:03:20.149Z,100.00
2022-08-31T05:05:52.495Z,100.00
2022-08-31T05:08:21.116Z,100.00
2022-08-31T05:10:55.928Z,100.00
2022-08-31T05:13:24.915Z,100.00
2022-08-31T05:15:55.130Z,100.00
2022-08-31T05:18:25.722Z,100.00
2022-08-31T05:21:10.774Z,100.00
2022-08-31T05:23:40.232Z,100.00
2022-08-31T05:26:09.210Z,100.00
2022-08-31T05:28:39.252Z,100.00
2022-08-31T05:31:08.154Z,100.00
2022-08-31T05:33:45.610Z,100.00
2022-08-31T05:36:16.384Z,100.00
2022-08-31T05:38:44.874Z,100.00
2022-08-31T05:41:15.206Z,100.00
2022-08-31T05:43:43.533Z,100.00
2022-08-31T05:46:15.376Z,100.00
2022-08-31T05:48:49.536Z,100.00
2022-08-31T05:51:20.787Z,100.00
2022-08-31T05:53:49.589Z,100.00
2022-08-31T05:56:21.774Z,100.00
2022-08-31T05:58:55.713Z,100.00
2022-08-31T06:01:33.133Z,100.00
2022-08-31T06:04:20.423Z,100.00
2022-08-31T06:06:48.844Z,100.00
2022-08-31T06:09:22.872Z,100.00
2022-08-31T06:11:54.331Z,100.00
2022-08-31T06:14:23.663Z,100.00
2022-08-31T06:16:55.571Z,100.00
2022-08-31T06:19:24.162Z,100.00
2022-08-31T06:21:55.651Z,100.00
2022-08-31T06:24:26.585Z,100.00
2022-08-31T06:26:59.600Z,100.00
2022-08-31T06:29:35.932Z,100.00
2022-08-31T06:32:10.106Z,100.00
2022-08-31T06:34:49.873Z,100.00
2022-08-31T06:37:41.325Z,100.00
2022-08-31T06:40:30.311Z,100.00
2022-08-31T06:43:17.323Z,100.00
2022-08-31T06:45:59.244Z,100.00
2022-08-31T06:48:35.795Z,100.00
2022-08-31T06:51:07.197Z,100.00
2022-08-31T06:53:41.254Z,100.00
2022-08-31T06:56:32.844Z,100.00
2022-08-31T06:59:39.246Z,100.00
2022-08-31T07:02:22.597Z,100.00
2022-08-31T07:04:53.905Z,100.00
2022-08-31T07:07:22.423Z,100.00
2022-08-31T07:09:52.435Z,100.00
2022-08-31T07:12:20.831Z,100.00
2022-08-31T07:14:55.092Z,100.00
2022-08-31T07:17:25.610Z,100.00
2022-08-31T07:19:54.130Z,100.00
2022-08-31T07:22:23.410Z,100.00
2022-08-31T07:24:57.488Z,98.74
2022-08-31T07:27:25.877Z,98.57
2022-08-31T07:30:00.325Z,97.79
2022-08-31T07:32:33.246Z,96.35
2022-08-31T07:35:02.591Z,95.97
2022-08-31T07:38:13.326Z,96.56
2022-08-31T07:41:00.534Z,97.47
2022-08-31T07:43:29.103Z,96.87
2022-08-31T07:45:57.781Z,97.32
2022-08-31T07:48:27.754Z,97.82
2022-08-31T07:51:18.651Z,97.55
2022-08-31T07:53:57.004Z,97.50
2022-08-31T07:56:32.950Z,98.25
2022-08-31T07:59:12.013Z,97.38
2022-08-31T08:01:43.429Z,97.46
2022-08-31T08:04:15.722Z,97.06
2022-08-31T08:07:07.691Z,96.48
2022-08-31T08:10:14.289Z,96.46
2022-08-31T08:13:12.783Z,95.72
2022-08-31T08:15:52.565Z,94.99
2022-08-31T08:18:30.864Z,95.34
2022-08-31T08:21:03.079Z,94.42
2022-08-31T08:23:31.866Z,94.11
2022-08-31T08:26:22.037Z,94.15
2022-08-31T08:29:13.985Z,89.88
2022-08-31T08:31:52.410Z,91.87
2022-08-31T08:34:29.671Z,89.68
2022-08-31T08:37:06.115Z,88.25
2022-08-31T08:39:34.652Z,87.23
2022-08-31T08:42:15.327Z,84.85
2022-08-31T08:44:44.580Z,84.44
2022-08-31T08:47:23.943Z,82.92
2022-08-31T08:50:03.819Z,82.76
2022-08-31T08:52:37.127Z,81.45
2022-08-31T08:55:09.907Z,80.43
2022-08-31T08:57:42.556Z,80.21
2022-08-31T09:00:25.615Z,81.30
2022-08-31T09:03:16.842Z,79.90
2022-08-31T09:06:19.345Z,79.24
2022-08-31T09:09:10.638Z,78.74
2022-08-31T09:12:14.872Z,77.32
2022-08-31T09:15:08.259Z,79.05
2022-08-31T09:18:01.070Z,76.59
2022-08-31T09:20:33.820Z,78.19
2022-08-31T09:23:07.028Z,78.48
2022-08-31T09:25:52.736Z,79.05
2022-08-31T09:28:47.218Z,79.88
2022-08-31T09:31:34.758Z,78.59
2022-08-31T09:34:05.870Z,78.38
2022-08-31T09:36:41.751Z,78.35
2022-08-31T09:39:33.074Z,74.58
2022-08-31T09:42:17.476Z,76.02
2022-08-31T09:44:48.184Z,71.89
2022-08-31T09:47:48.195Z,75.00
2022-08-31T09:50:33.421Z,75.99
2022-08-31T09:53:42.917Z,72.23
2022-08-31T09:56:14.353Z,73.86
2022-08-31T09:59:02.967Z,70.19
2022-08-31T10:01:45.631Z,73.00
2022-08-31T10:04:15.989Z,73.20
2022-08-31T10:07:12.042Z,71.21
2022-08-31T10:09:47.539Z,69.66
2022-08-31T10:12:38.270Z,69.69
2022-08-31T10:15:15.288Z,69.14
2022-08-31T10:17:55.864Z,68.57
2022-08-31T10:20:31.098Z,65.48
2022-08-31T10:23:14.461Z,66.05
2022-08-31T10:25:57.677Z,66.13
2022-08-31T10:28:40.397Z,64.91
2022-08-31T10:31:23.893Z,66.18
2022-08-31T10:34:20.184Z,64.61
2022-08-31T10:36:54.559Z,61.06
2022-08-31T10:39:26.055Z,62.27
2022-08-31T10:41:54.466Z,61.76
2022-08-31T10:44:40.561Z,61.67
2022-08-31T10:47:32.764Z,62.86
2022-08-31T10:50:04.543Z,62.82
2022-08-31T10:53:01.859Z,61.52
2022-08-31T10:55:37.614Z,62.04
2022-08-31T10:58:27.162Z,61.11
2022-08-31T11:01:36.515Z,61.32
2022-08-31T11:04:23.380Z,58.08
2022-08-31T11:07:30.025Z,61.41
2022-08-31T11:10:20.028Z,59.77
2022-08-31T11:12:57.559Z,60.87
2022-08-31T11:15:35.214Z,61.01
2022-08-31T11:18:40.007Z,58.98
2022-08-31T11:21:35.623Z,59.48
2022-08-31T11:24:20.666Z,59.52
2022-08-31T11:27:19.207Z,59.85
2022-08-31T11:30:12.649Z,58.79
2022-08-31T11:32:50.958Z,57.64
2022-08-31T11:36:08.144Z,59.33
2022-08-31T11:38:56.558Z,57.94
2022-08-31T11:41:46.901Z,58.92
2022-08-31T11:44:30.737Z,58.37
2022-08-31T11:47:21.206Z,57.06
2022-08-31T11:49:55.822Z,56.23
2022-08-31T11:52:45.229Z,54.12
2022-08-31T11:55:27.139Z,54.16
2022-08-31T11:58:08.186Z,55.10
2022-08-31T12:01:09.318Z,54.31
2022-08-31T12:03:51.619Z,54.33
2022-08-31T12:06:27.607Z,54.96
2022-08-31T12:09:19.210Z,54.45
2022-08-31T12:11:53.813Z,53.76
2022-08-31T12:14:51.961Z,53.04
2022-08-31T12:17:47.348Z,53.54
2022-08-31T12:21:01.408Z,52.98
2022-08-31T12:23:40.099Z,51.84
2022-08-31T12:26:29.244Z,51.98
2022-08-31T12:29:12.780Z,52.46
2022-08-31T12:32:20.172Z,51.95
2022-08-31T12:35:12.148Z,52.09
2022-08-31T12:37:44.594Z,52.39
2022-08-31T12:40:23.154Z,52.54
2022-08-31T12:43:05.484Z,52.56
2022-08-31T12:46:07.499Z,52.16
2022-08-31T12:49:00.837Z,52.80
2022-08-31T12:52:09.733Z,52.22
2022-08-31T12:54:59.529Z,52.38
2022-08-31T12:57:38.447Z,52.65
2022-08-31T13:00:13.034Z,52.69
2022-08-31T13:02:45.699Z,53.47
2022-08-31T13:05:35.638Z,52.51
2022-08-31T13:08:25.026Z,52.19
2022-08-31T13:10:53.911Z,52.56
2022-08-31T13:13:27.558Z,52.29
2022-08-31T13:16:00.910Z,53.21
2022-08-31T13:18:31.033Z,54.18
2022-08-31T13:21:05.899Z,54.40
2022-08-31T13:23:39.751Z,52.68
2022-08-31T13:26:20.032Z,52.75
2022-08-31T13:29:04.115Z,51.80
2022-08-31T13:31:44.498Z,55.92
2022-08-31T13:34:12.974Z,60.66
2022-08-31T13:36:55.071Z,58.66
2022-08-31T13:39:30.063Z,56.07
2022-08-31T13:42:21.242Z,54.82
2022-08-31T13:44:58.248Z,54.22
2022-08-31T13:47:51.885Z,55.08
2022-08-31T13:50:34.452Z,56.04
2022-08-31T13:55:55.156Z,55.53
2022-08-31T13:58:31.255Z,56.46
2022-08-31T14:01:25.415Z,56.57
2022-08-31T14:03:58.840Z,57.85
2022-08-31T14:06:38.063Z,60.45
2022-08-31T14:09:19.558Z,62.07
2022-08-31T14:12:04.442Z,60.64
2022-08-31T14:14:43.359Z,60.41
2022-08-31T14:17:16.391Z,59.61
2022-08-31T14:19:45.767Z,59.93
2022-08-31T14:22:33.138Z,62.19
2022-08-31T14:25:02.752Z,61.13
2022-08-31T14:27:33.659Z,61.03
2022-08-31T14:30:02.704Z,60.81
2022-08-31T14:32:33.866Z,60.76
2022-08-31T14:35:02.589Z,59.96
2022-08-31T14:37:31.752Z,60.24
2022-08-31T14:40:07.373Z,59.64
2022-08-31T14:42:39.348Z,59.44
2022-08-31T14:45:18.674Z,60.28
2022-08-31T14:47:52.433Z,61.85
2022-08-31T14:50:26.310Z,62.72
2022-08-31T14:52:58.521Z,61.87
2022-08-31T14:55:28.703Z,61.67
2022-08-31T14:58:01.583Z,62.31
2022-08-31T15:00:32.422Z,63.88
2022-08-31T15:03:01.331Z,63.26
2022-08-31T15:05:29.744Z,61.16
2022-08-31T15:10:26.518Z,62.66
2022-08-31T15:12:55.794Z,62.65
2022-08-31T15:15:24.218Z,64.08
2022-08-31T15:17:52.882Z,64.48
2022-08-31T15:20:23.413Z,62.04
2022-08-31T15:22:51.609Z,62.31
2022-08-31T15:25:22.374Z,62.24
2022-08-31T15:27:51.707Z,63.36
2022-08-31T15:30:20.475Z,64.56
2022-08-31T15:32:48.984Z,64.53
2022-08-31T15:35:20.506Z,65.42
2022-08-31T15:37:55.259Z,65.38
2022-08-31T15:40:38.911Z,65.86
2022-08-31T15:43:14.220Z,65.27
2022-08-31T15:45:43.280Z,65.70
2022-08-31T15:48:30.290Z,65.61
2022-08-31T15:51:01.322Z,66.61
2022-08-31T15:53:31.029Z,66.69
2022-08-31T15:56:05.703Z,66.38
2022-08-31T15:58:39.028Z,67.28
2022-08-31T16:01:16.215Z,67.43
2022-08-31T16:03:57.687Z,67.59
2022-08-31T16:06:32.649Z,68.48
2022-08-31T16:09:02.253Z,68.73
2022-08-31T16:11:37.015Z,68.05
2022-08-31T16:14:09.844Z,68.00
2022-08-31T16:16:43.433Z,68.53
2022-08-31T16:19:23.326Z,69.41
2022-08-31T16:21:56.670Z,69.41
2022-08-31T16:24:25.139Z,69.22
2022-08-31T16:26:57.023Z,69.65
2022-08-31T16:29:28.948Z,69.00
2022-08-31T16:31:57.502Z,69.04
2022-08-31T16:34:27.099Z,70.14
2022-08-31T16:36:57.082Z,71.30
2022-08-31T16:39:28.215Z,72.14
2022-08-31T16:41:57.544Z,72.15
2022-08-31T16:44:35.450Z,72.39
2022-08-31T16:47:08.371Z,73.79
2022-08-31T16:49:40.306Z,73.82
2022-08-31T16:52:21.551Z,74.69
2022-08-31T16:54:51.384Z,75.62
2022-08-31T16:57:29.259Z,76.81
2022-08-31T16:59:59.266Z,77.36
2022-08-31T17:02:28.418Z,77.84
2022-08-31T17:05:03.826Z,78.59
2022-08-31T17:07:32.177Z,79.27
2022-08-31T17:10:07.233Z,79.03
2022-08-31T17:12:36.924Z,79.43
2022-08-31T17:15:06.121Z,79.35
2022-08-31T17:17:34.616Z,79.59
2022-08-31T17:20:05.058Z,80.28
2022-08-31T17:22:33.800Z,81.96
2022-08-31T17:25:04.580Z,80.54
2022-08-31T17:27:34.684Z,81.89
2022-08-31T17:30:06.358Z,82.25
2022-08-31T17:32:39.448Z,82.45
2022-08-31T17:35:19.088Z,83.25
2022-08-31T17:37:49.321Z,83.83
2022-08-31T17:40:18.034Z,83.76
2022-08-31T17:42:46.611Z,83.70
2022-08-31T17:45:15.590Z,84.36
2022-08-31T17:47:43.997Z,84.68
2022-08-31T17:50:14.087Z,84.83
2022-08-31T17:52:42.466Z,85.13
2022-08-31T17:55:10.823Z,85.72
2022-08-31T17:57:41.962Z,85.79
2022-08-31T18:00:14.450Z,85.82
2022-08-31T18:02:43.481Z,85.84
2022-08-31T18:05:12.382Z,85.77
2022-08-31T18:07:41.035Z,86.17
2022-08-31T18:10:10.251Z,86.44
2022-08-31T18:12:42.004Z,86.31
2022-08-31T18:15:12.769Z,87.00
2022-08-31T18:17:41.040Z,88.81
2022-08-31T18:20:11.910Z,87.38
2022-08-31T18:22:41.951Z,87.98
2022-08-31T18:25:10.754Z,88.07
2022-08-31T18:27:39.186Z,88.26
2022-08-31T18:30:09.019Z,88.56
2022-08-31T18:32:37.581Z,89.37
2022-08-31T18:35:14.426Z,89.81
2022-08-31T18:37:43.200Z,90.53
2022-08-31T18:40:30.650Z,90.84
2022-08-31T18:43:18.743Z,90.86
2022-08-31T18:45:49.182Z,91.26
2022-08-31T18:48:26.624Z,92.83
2022-08-31T18:50:58.904Z,91.99
2022-08-31T18:53:30.286Z,92.47
2022-08-31T18:56:06.960Z,92.89
2022-08-31T18:58:39.737Z,93.32
2022-08-31T19:01:11.670Z,93.52
2022-08-31T19:03:41.198Z,93.88
2022-08-31T19:06:19.358Z,94.25
2022-08-31T19:08:48.157Z,94.34
2022-08-31T19:11:19.124Z,94.82
2022-08-31T19:13:51.183Z,95.35
2022-08-31T19:16:28.638Z,96.08
2022-08-31T19:18:58.920Z,96.68
2022-08-31T19:21:33.397Z,97.14
2022-08-31T19:24:05.093Z,97.39
2022-08-31T19:26:37.357Z,97.77
2022-08-31T19:29:09.254Z,98.20
2022-08-31T19:31:40.825Z,98.73
2022-08-31T19:34:09.470Z,98.89
2022-08-31T19:36:40.825Z,99.25
2022-08-31T19:39:13.546Z,99.78
2022-08-31T19:41:49.315Z,100.00
2022-08-31T19:44:18.744Z,100.00
2022-08-31T19:46:54.575Z,100.00
2022-08-31T19:49:24.581Z,100.00
2022-08-31T19:51:58.365Z,100.00
2022-08-31T19:54:31.289Z,100.00
2022-08-31T19:56:59.911Z,100.00
2022-08-31T19:59:28.181Z,100.00
2022-08-31T20:01:57.751Z,100.00
2022-08-31T20:04:30.246Z,100.00
2022-08-31T20:06:59.189Z,100.00
2022-08-31T20:09:29.890Z,100.00
2022-08-31T20:12:00.130Z,100.00
2022-08-31T20:14:28.853Z,100.00
2022-08-31T20:16:59.572Z,100.00
2022-08-31T20:19:36.175Z,100.00
2022-08-31T20:22:08.209Z,100.00
2022-08-31T20:24:43.153Z,100.00
2022-08-31T20:27:19.596Z,100.00
2022-08-31T20:29:49.122Z,100.00
2022-08-31T20:32:17.717Z,100.00
2022-08-31T20:34:46.442Z,100.00
2022-08-31T20:37:15.033Z,100.00
2022-08-31T20:39:43.437Z,100.00
2022-08-31T20:42:13.864Z,100.00
2022-08-31T20:44:48.828Z,100.00
2022-08-31T20:47:36.145Z,100.00
2022-08-31T20:50:07.414Z,100.00
2022-08-31T20:52:36.224Z,100.00
2022-08-31T20:55:06.325Z,100.00
2022-08-31T20:57:37.656Z,100.00
2022-08-31T21:00:10.127Z,100.00
2022-08-31T21:02:41.436Z,100.00
2022-08-31T21:08:00.026Z,100.00
2022-08-31T21:10:37.955Z,100.00
2022-08-31T21:13:12.234Z,100.00
2022-08-31T21:15:45.946Z,100.00
2022-08-31T21:18:17.675Z,100.00
2022-08-31T21:20:47.881Z,100.00
2022-08-31T21:23:16.865Z,100.00
2022-08-31T21:25:46.649Z,100.00
2022-08-31T21:28:17.431Z,100.00
2022-08-31T21:30:49.608Z,100.00
2022-08-31T21:33:18.686Z,100.00
2022-08-31T21:35:47.843Z,100.00
2022-08-31T21:38:18.123Z,100.00
2022-08-31T21:40:50.375Z,100.00
2022-08-31T21:43:19.732Z,100.00
2022-08-31T21:45:52.374Z,100.00
2022-08-31T21:48:26.117Z,100.00
2022-08-31T21:50:55.881Z,100.00
2022-08-31T21:53:28.629Z,100.00
2022-08-31T21:55:57.010Z,100.00
2022-08-31T21:58:26.052Z,100.00
2022-08-31T22:00:55.612Z,100.00
2022-08-31T22:03:24.318Z,100.00
2022-08-31T22:05:56.031Z,100.00
2022-08-31T22:08:26.254Z,100.00
2022-08-31T22:10:55.322Z,100.00
2022-08-31T22:13:23.716Z,100.00
2022-08-31T22:15:53.011Z,100.00
2022-08-31T22:21:18.172Z,100.00
2022-08-31T22:23:55.400Z,100.00
2022-08-31T22:26:28.807Z,100.00
2022-08-31T22:28:57.313Z,100.00
2022-08-31T22:31:27.333Z,100.00
2022-08-31T22:33:55.850Z,100.00
2022-08-31T22:36:32.951Z,100.00
2022-08-31T22:39:06.730Z,100.00
2022-08-31T22:41:37.369Z,100.00
2022-08-31T22:44:07.117Z,100.00
2022-08-31T22:46:37.014Z,100.00
2022-08-31T22:49:07.842Z,100.00
2022-08-31T22:51:37.906Z,100.00
2022-08-31T22:54:08.090Z,100.00
2022-08-31T22:56:39.912Z,100.00
2022-08-31T22:59:13.001Z,100.00
2022-08-31T23:01:48.293Z,100.00
2022-08-31T23:04:20.556Z,100.00
2022-08-31T23:06:51.170Z,100.00
2022-08-31T23:09:21.420Z,100.00
2022-08-31T23:11:51.871Z,100.00
2022-08-31T23:14:21.501Z,100.00
2022-08-31T23:17:00.854Z,100.00
2022-08-31T23:19:36.915Z,100.00
2022-08-31T23:22:09.553Z,100.00
2022-08-31T23:24:44.710Z,100.00
2022-08-31T23:27:15.646Z,100.00
2022-08-31T23:29:48.101Z,100.00
2022-08-31T23:32:19.728Z,100.00
2022-08-31T23:34:51.110Z,100.00
2022-08-31T23:37:23.746Z,100.00
2022-08-31T23:39:56.346Z,100.00
2022-08-31T23:42:27.826Z,100.00
2022-08-31T23:44:57.748Z,100.00
2022-08-31T23:47:30.687Z,100.00
2022-08-31T23:49:59.373Z,100.00
2022-08-31T23:52:29.517Z,100.00
2022-08-31T23:54:59.384Z,100.00
2022-08-31T23:57:31.524Z,100.00
